Time;durP1;ratioP1;P1;durP2;ratioP2;P2;SDS_P1;SDS_P2;PMS_P1;PMS_P2;Temp;Humidity;BMP_temperature;BMP_pressure;BME280_temperature;BME280_humidity;BME280_pressure;Samples;Min_cycle;Max_cycle;Signal;HPM_P1;HPM_P2
2024/03/17 00:00:45;;;;;;;10.52;8.52;;;10.90;77.30;;;;;;4980048;28;20026;-34
2024/03/17 00:03:11;;;;;;;10.68;7.88;;;10.90;77.40;;;;;;4971844;28;20039;-35
2024/03/17 00:05:37;;;;;;;10.05;7.85;;;10.90;77.40;;;;;;4973159;28;20395;-34
2024/03/17 00:08:06;;;;;;;10.30;8.15;;;10.90;77.50;;;;;;4966645;28;20090;-35
2024/03/17 00:10:32;;;;;;;12.02;8.18;;;10.90;77.50;;;;;;4973301;28;20073;-35
2024/03/17 00:12:58;;;;;;;9.80;8.13;;;10.80;77.50;;;;;;4952965;28;20027;-34
2024/03/17 00:15:24;;;;;;;10.63;8.25;;;10.80;77.50;;;;;;4973635;28;20109;-31
2024/03/17 00:17:50;;;;;;;10.27;8.02;;;10.80;77.50;;;;;;4972494;28;20464;-36
2024/03/17 00:20:19;;;;;;;10.25;8.38;;;10.80;77.60;;;;;;4975930;28;20042;-34
2024/03/17 00:22:49;;;;;;;9.13;8.13;;;10.80;77.60;;;;;;4974012;28;20055;-35
2024/03/17 00:25:15;;;;;;;11.65;9.43;;;10.80;77.60;;;;;;4947461;28;20031;-35
2024/03/17 00:27:43;;;;;;;10.63;8.43;;;10.70;77.60;;;;;;4974388;28;20046;-33
2024/03/17 00:30:12;;;;;;;10.88;8.45;;;10.70;77.60;;;;;;4972571;28;20019;-37
2024/03/17 00:32:40;;;;;;;12.85;8.65;;;10.70;77.70;;;;;;4973993;28;20046;-36
2024/03/17 00:35:07;;;;;;;10.43;8.80;;;10.70;77.80;;;;;;4975584;28;20026;-37
2024/03/17 00:37:33;;;;;;;10.45;8.65;;;10.70;77.80;;;;;;4977599;28;20124;-38
2024/03/17 00:40:01;;;;;;;11.43;9.00;;;10.60;77.70;;;;;;4960209;28;20113;-33
2024/03/17 00:42:26;;;;;;;10.95;8.32;;;10.60;77.90;;;;;;4974979;28;20054;-32
2024/03/17 00:44:52;;;;;;;11.75;8.77;;;10.60;77.70;;;;;;4962021;28;20031;-34
2024/03/17 00:47:18;;;;;;;10.85;7.93;;;10.70;77.80;;;;;;4980802;28;20050;-37
2024/03/17 00:49:44;;;;;;;12.65;8.32;;;10.60;77.80;;;;;;4968352;28;20074;-35
2024/03/17 00:52:09;;;;;;;13.02;8.95;;;10.60;77.90;;;;;;4977947;28;20047;-33
2024/03/17 00:54:35;;;;;;;10.45;8.40;;;10.50;77.80;;;;;;4963459;28;20025;-35
2024/03/17 00:57:01;;;;;;;8.98;7.93;;;10.50;77.80;;;;;;4981695;28;20019;-33
2024/03/17 00:59:27;;;;;;;10.93;8.88;;;10.50;77.80;;;;;;4970511;28;20054;-33
2024/03/17 01:01:53;;;;;;;10.93;7.60;;;10.50;77.90;;;;;;4964087;28;20067;-36
2024/03/17 01:04:19;;;;;;;9.88;8.07;;;10.50;77.90;;;;;;4967834;28;20038;-35
2024/03/17 01:06:44;;;;;;;10.95;7.90;;;10.50;77.90;;;;;;4964689;28;20113;-33
2024/03/17 01:09:10;;;;;;;9.02;7.70;;;10.50;78.00;;;;;;4970415;28;20492;-36
2024/03/17 01:11:36;;;;;;;10.30;7.50;;;10.50;78.00;;;;;;4968374;28;20111;-32
2024/03/17 01:14:01;;;;;;;9.00;6.90;;;10.50;78.00;;;;;;4976596;28;20037;-35
2024/03/17 01:16:27;;;;;;;8.65;7.25;;;10.50;78.00;;;;;;4966950;28;20479;-33
2024/03/17 01:18:53;;;;;;;9.48;6.95;;;10.40;78.00;;;;;;4978123;28;20066;-31
2024/03/17 01:21:20;;;;;;;8.80;7.00;;;10.40;78.70;;;;;;4974760;28;20079;-35
2024/03/17 01:23:47;;;;;;;7.80;6.70;;;10.40;78.00;;;;;;4974218;28;20030;-34
2024/03/17 01:26:13;;;;;;;9.23;6.97;;;10.40;78.10;;;;;;4973176;28;20547;-35
2024/03/17 01:28:38;;;;;;;10.32;6.63;;;10.40;78.00;;;;;;4979720;28;20023;-34
2024/03/17 01:31:07;;;;;;;7.55;6.20;;;10.40;78.10;;;;;;4976599;28;20015;-33
2024/03/17 01:33:34;;;;;;;8.63;6.60;;;10.40;78.10;;;;;;4977955;28;20034;-34
2024/03/17 01:35:59;;;;;;;7.90;6.15;;;10.30;78.10;;;;;;4968799;28;20023;-34
2024/03/17 01:38:25;;;;;;;8.45;7.00;;;10.30;78.10;;;;;;4987478;28;20058;-33
2024/03/17 01:40:51;;;;;;;8.32;5.97;;;10.30;78.10;;;;;;4979491;28;20023;-34
2024/03/17 01:43:17;;;;;;;7.85;6.13;;;10.30;78.10;;;;;;4982334;28;20027;-34
2024/03/17 01:45:43;;;;;;;7.97;5.97;;;10.30;78.10;;;;;;4979826;28;20034;-32
2024/03/17 01:48:19;;;;;;;6.80;5.50;;;10.30;78.10;;;;;;4992128;28;20190;-32
2024/03/17 01:50:48;;;;;;;7.75;6.00;;;10.30;78.00;;;;;;4974653;28;20099;-33
2024/03/17 01:53:14;;;;;;;7.88;6.40;;;10.30;78.00;;;;;;4977107;28;20053;-33
2024/03/17 01:55:43;;;;;;;9.25;6.03;;;10.20;78.00;;;;;;4978940;28;20054;-33
2024/03/17 01:58:13;;;;;;;6.20;5.10;;;10.20;78.00;;;;;;4983880;28;20035;-32
2024/03/17 02:00:39;;;;;;;7.93;5.95;;;10.20;78.10;;;;;;4955953;28;20019;-37
2024/03/17 02:03:08;;;;;;;7.88;5.78;;;10.20;78.10;;;;;;4975193;28;20019;-36
2024/03/17 02:05:34;;;;;;;7.47;5.88;;;10.20;78.10;;;;;;4977710;28;20023;-33
2024/03/17 02:08:01;;;;;;;8.20;5.95;;;10.20;78.10;;;;;;4986878;28;20026;-34
2024/03/17 02:10:27;;;;;;;7.63;5.93;;;10.10;78.10;;;;;;4977391;28;20031;-33
2024/03/17 02:12:53;;;;;;;7.00;5.40;;;10.20;78.10;;;;;;4977053;28;20045;-33
2024/03/17 02:15:19;;;;;;;7.20;5.47;;;10.20;78.10;;;;;;4980668;28;20031;-35
2024/03/17 02:17:45;;;;;;;8.18;5.78;;;10.20;78.10;;;;;;4980421;28;20047;-34
2024/03/17 02:20:11;;;;;;;7.63;5.25;;;10.10;78.10;;;;;;4981929;28;20030;-35
2024/03/17 02:22:40;;;;;;;8.93;5.80;;;10.10;78.10;;;;;;4974869;28;20018;-33
2024/03/17 02:25:08;;;;;;;8.32;6.10;;;10.10;78.10;;;;;;4958428;28;20029;-34
2024/03/17 02:27:35;;;;;;;6.65;5.68;;;10.10;78.10;;;;;;4978701;28;20022;-34
2024/03/17 02:30:01;;;;;;;7.40;5.70;;;10.10;78.10;;;;;;4977541;28;20089;-33
2024/03/17 02:32:27;;;;;;;7.25;5.70;;;10.10;78.20;;;;;;4961137;28;20039;-35
2024/03/17 02:34:53;;;;;;;7.60;5.45;;;10.10;78.20;;;;;;4978962;28;20476;-35
2024/03/17 02:37:19;;;;;;;7.22;5.68;;;10.10;78.10;;;;;;4974829;28;20019;-35
2024/03/17 02:39:45;;;;;;;6.65;5.38;;;10.00;78.10;;;;;;4973087;28;20034;-37
2024/03/17 02:42:10;;;;;;;7.40;6.00;;;10.00;78.10;;;;;;4971230;28;20043;-33
2024/03/17 02:44:38;;;;;;;9.23;5.65;;;10.00;78.10;;;;;;4977142;28;20078;-37
2024/03/17 02:47:08;;;;;;;7.60;5.50;;;10.00;78.10;;;;;;4975087;28;20099;-33
2024/03/17 02:49:39;;;;;;;7.00;5.70;;;10.00;78.10;;;;;;4981289;28;20063;-34
2024/03/17 02:52:09;;;;;;;9.05;5.70;;;10.00;78.10;;;;;;4974337;28;20065;-31
2024/03/17 02:54:36;;;;;;;7.63;6.03;;;10.00;78.10;;;;;;4973887;28;20042;-32
2024/03/17 02:57:02;;;;;;;7.03;5.47;;;10.00;78.10;;;;;;4957311;28;20030;-35
2024/03/17 02:59:28;;;;;;;7.65;5.70;;;9.90;78.10;;;;;;4972990;28;20031;-32
2024/03/17 03:01:55;;;;;;;6.68;5.13;;;9.90;78.10;;;;;;4979699;28;20042;-35
2024/03/17 03:04:21;;;;;;;6.97;5.55;;;9.90;78.10;;;;;;4980170;28;20030;-36
2024/03/17 03:06:47;;;;;;;6.32;4.85;;;9.90;78.10;;;;;;4955255;28;20097;-35
2024/03/17 03:09:14;;;;;;;7.68;5.85;;;9.90;78.10;;;;;;4978845;28;20023;-33
2024/03/17 03:11:43;;;;;;;7.38;5.38;;;9.90;78.10;;;;;;4968242;28;20031;-33
2024/03/17 03:14:09;;;;;;;7.22;5.45;;;9.90;78.10;;;;;;4978759;28;20031;-36
2024/03/17 03:16:34;;;;;;;7.60;5.28;;;9.90;78.20;;;;;;4978265;28;20042;-35
2024/03/17 03:19:00;;;;;;;6.65;5.47;;;9.90;78.20;;;;;;4977596;28;20035;-36
2024/03/17 03:21:26;;;;;;;7.60;5.68;;;9.80;78.20;;;;;;4975424;28;20016;-31
2024/03/17 03:23:52;;;;;;;7.13;5.65;;;9.90;78.20;;;;;;4977012;28;20018;-32
2024/03/17 03:26:18;;;;;;;7.05;5.18;;;9.90;78.20;;;;;;4974712;28;20035;-36
2024/03/17 03:28:44;;;;;;;7.28;5.82;;;9.90;78.20;;;;;;4976744;28;20081;-38
2024/03/17 03:31:13;;;;;;;7.82;5.30;;;9.90;78.30;;;;;;4979544;28;20042;-34
2024/03/17 03:33:41;;;;;;;7.63;6.10;;;9.90;78.30;;;;;;4975884;28;20035;-35
2024/03/17 03:36:14;;;;;;;7.38;5.60;;;9.90;78.30;;;;;;4975719;28;20026;-34
2024/03/17 03:38:40;;;;;;;7.10;5.65;;;9.80;78.30;;;;;;4978235;28;20119;-37
2024/03/17 03:41:12;;;;;;;7.03;5.72;;;9.90;78.30;;;;;;4978342;28;20023;-32
2024/03/17 03:43:38;;;;;;;7.68;6.00;;;9.90;78.30;;;;;;4980986;28;20038;-34
2024/03/17 03:46:04;;;;;;;8.35;5.97;;;9.80;78.30;;;;;;4971405;28;20074;-33
2024/03/17 03:48:31;;;;;;;6.68;5.38;;;9.80;78.30;;;;;;4984755;28;20042;-36
2024/03/17 03:50:56;;;;;;;8.10;5.82;;;9.80;78.40;;;;;;4970524;28;20094;-32
2024/03/17 03:53:22;;;;;;;7.25;5.55;;;9.80;78.40;;;;;;4963631;28;20031;-33
2024/03/17 03:55:48;;;;;;;7.05;5.78;;;9.80;78.40;;;;;;4955900;28;20023;-33
2024/03/17 03:58:15;;;;;;;7.07;5.47;;;9.90;78.40;;;;;;4983650;28;20041;-34
2024/03/17 04:00:41;;;;;;;8.13;6.35;;;9.80;78.40;;;;;;4978665;28;20045;-37
2024/03/17 04:03:06;;;;;;;7.10;5.75;;;9.80;78.40;;;;;;4979478;28;20026;-33
2024/03/17 04:05:34;;;;;;;8.88;6.07;;;9.80;78.40;;;;;;4977054;28;20098;-35
2024/03/17 04:08:00;;;;;;;7.35;5.60;;;9.80;78.40;;;;;;4983060;28;20032;-35
2024/03/17 04:10:26;;;;;;;7.72;6.07;;;9.90;78.40;;;;;;4977414;28;20019;-36
2024/03/17 04:12:53;;;;;;;7.75;5.90;;;9.80;78.40;;;;;;4967572;28;20046;-33
2024/03/17 04:15:19;;;;;;;6.95;5.70;;;9.90;78.50;;;;;;4971289;28;20035;-32
2024/03/17 04:17:45;;;;;;;7.43;5.68;;;9.90;78.40;;;;;;4960026;28;20107;-33
2024/03/17 04:20:13;;;;;;;7.90;5.80;;;9.90;78.40;;;;;;4974380;28;20085;-36
2024/03/17 04:22:45;;;;;;;8.15;5.80;;;9.80;78.40;;;;;;4970602;28;20031;-36
2024/03/17 04:25:12;;;;;;;7.13;5.68;;;9.80;78.40;;;;;;4964905;28;20027;-32
2024/03/17 04:27:39;;;;;;;7.13;5.68;;;9.80;78.40;;;;;;4974058;28;20035;-38
2024/03/17 04:30:06;;;;;;;7.80;5.82;;;9.90;78.50;;;;;;4974850;28;20043;-34
2024/03/17 04:32:32;;;;;;;7.40;6.03;;;9.90;78.50;;;;;;4970043;28;20035;-33
2024/03/17 04:34:58;;;;;;;7.00;6.15;;;9.90;78.50;;;;;;4967753;28;20058;-33
2024/03/17 04:37:25;;;;;;;7.00;5.82;;;9.90;78.40;;;;;;4979487;28;20360;-32
2024/03/17 04:39:57;;;;;;;6.97;5.82;;;9.90;78.50;;;;;;4975911;28;20035;-33
2024/03/17 04:42:23;;;;;;;7.68;6.20;;;9.90;78.50;;;;;;4965253;28;20042;-32
2024/03/17 04:44:48;;;;;;;7.32;5.97;;;9.90;78.50;;;;;;4971957;28;20022;-33
2024/03/17 04:47:14;;;;;;;6.90;6.03;;;9.90;78.60;;;;;;4967377;28;20022;-35
2024/03/17 04:49:42;;;;;;;8.02;6.72;;;9.90;78.50;;;;;;4982217;28;20077;-36
2024/03/17 04:52:09;;;;;;;8.25;6.53;;;9.90;78.50;;;;;;4974095;28;20046;-37
2024/03/17 04:54:35;;;;;;;7.85;6.60;;;9.90;78.60;;;;;;4973880;28;20041;-36
2024/03/17 04:57:01;;;;;;;7.22;6.10;;;9.90;78.60;;;;;;4964802;28;20031;-33
2024/03/17 04:59:27;;;;;;;7.50;6.70;;;9.90;79.30;;;;;;4983349;28;20023;-34
2024/03/17 05:01:53;;;;;;;8.55;6.53;;;9.90;78.70;;;;;;4977232;28;20019;-32
2024/03/17 05:04:20;;;;;;;7.70;6.45;;;9.90;78.70;;;;;;4979540;28;20562;-32
2024/03/17 05:06:46;;;;;;;8.23;6.68;;;9.90;78.70;;;;;;4973038;28;20035;-36
2024/03/17 05:09:18;;;;;;;7.88;6.28;;;9.90;78.60;;;;;;4974176;28;20034;-34
2024/03/17 05:11:44;;;;;;;8.30;6.90;;;9.90;78.60;;;;;;4976649;28;20015;-33
2024/03/17 05:14:10;;;;;;;7.00;6.18;;;9.90;78.60;;;;;;4968236;28;20019;-34
2024/03/17 05:16:35;;;;;;;8.93;6.65;;;9.90;78.70;;;;;;4976538;28;20062;-36
2024/03/17 05:19:01;;;;;;;8.20;7.13;;;9.90;78.60;;;;;;4967816;28;20035;-36
2024/03/17 05:21:30;;;;;;;8.20;6.45;;;9.90;78.70;;;;;;4971274;28;20022;-33
2024/03/17 05:24:00;;;;;;;7.82;6.90;;;9.90;78.70;;;;;;4975446;28;20074;-32
2024/03/17 05:26:26;;;;;;;8.77;6.95;;;9.90;78.70;;;;;;4977153;28;20023;-34
2024/03/17 05:28:53;;;;;;;9.10;7.63;;;9.90;78.70;;;;;;4976649;28;20087;-34
2024/03/17 05:31:21;;;;;;;7.97;7.18;;;9.90;78.70;;;;;;4974939;28;20090;-33
2024/03/17 05:33:47;;;;;;;7.80;6.85;;;9.90;78.80;;;;;;4973360;28;20035;-31
2024/03/17 05:36:13;;;;;;;8.02;7.07;;;9.90;78.80;;;;;;4969316;28;20070;-36
2024/03/17 05:38:39;;;;;;;8.73;7.15;;;9.90;78.70;;;;;;4982472;28;20023;-36
2024/03/17 05:41:09;;;;;;;8.02;6.47;;;9.90;78.70;;;;;;4973761;28;20650;-35
2024/03/17 05:43:36;;;;;;;8.80;7.10;;;9.90;78.80;;;;;;4976865;28;20111;-37
2024/03/17 05:46:06;;;;;;;8.25;6.93;;;9.90;78.80;;;;;;4981613;28;20431;-32
2024/03/17 05:48:32;;;;;;;7.93;7.13;;;9.90;79.40;;;;;;4972780;28;20059;-35
2024/03/17 05:51:02;;;;;;;7.63;6.80;;;9.90;78.80;;;;;;4968939;28;20059;-33
2024/03/17 05:53:28;;;;;;;7.72;6.80;;;9.90;79.40;;;;;;4963472;28;20036;-35
2024/03/17 05:55:55;;;;;;;8.88;7.28;;;9.80;78.70;;;;;;4978497;28;20023;-36
2024/03/17 05:58:20;;;;;;;8.45;7.40;;;9.90;78.80;;;;;;4982353;28;20041;-37
2024/03/17 06:00:46;;;;;;;7.57;6.75;;;9.90;78.80;;;;;;4972700;28;20015;-33
2024/03/17 06:03:13;;;;;;;8.10;7.30;;;9.80;78.80;;;;;;4977794;28;20034;-32
2024/03/17 06:05:43;;;;;;;8.90;7.43;;;9.90;78.90;;;;;;4967604;28;20103;-32
2024/03/17 06:08:09;;;;;;;8.68;7.72;;;9.90;78.90;;;;;;4976997;28;20046;-33
2024/03/17 06:10:36;;;;;;;8.80;7.78;;;9.90;79.50;;;;;;4968082;28;20023;-35
2024/03/17 06:13:05;;;;;;;8.75;7.57;;;9.80;78.90;;;;;;4978823;28;20057;-34
2024/03/17 06:15:31;;;;;;;8.68;7.78;;;9.80;78.90;;;;;;4968402;28;20178;-32
2024/03/17 06:17:56;;;;;;;9.48;7.45;;;9.80;79.00;;;;;;4971662;28;20047;-35
2024/03/17 06:20:26;;;;;;;8.25;6.88;;;9.90;79.00;;;;;;4969885;28;20072;-34
2024/03/17 06:22:53;;;;;;;8.48;7.57;;;9.90;79.00;;;;;;4974960;28;20099;-36
2024/03/17 06:25:19;;;;;;;8.98;7.57;;;9.80;78.90;;;;;;4976823;28;20038;-32
2024/03/17 06:27:45;;;;;;;8.88;7.68;;;9.90;79.00;;;;;;4978546;28;20019;-34
2024/03/17 06:30:14;;;;;;;8.43;7.53;;;9.80;79.00;;;;;;4973377;28;20459;-36
2024/03/17 06:32:41;;;;;;;8.75;7.75;;;9.90;79.10;;;;;;4976350;28;20047;-33
2024/03/17 06:35:08;;;;;;;8.38;7.47;;;9.80;79.10;;;;;;4972731;28;20029;-32
2024/03/17 06:37:33;;;;;;;9.75;8.10;;;9.80;79.00;;;;;;4975459;28;20027;-34
2024/03/17 06:39:59;;;;;;;9.10;7.60;;;9.90;79.10;;;;;;4978393;28;20043;-35
2024/03/17 06:42:25;;;;;;;9.02;7.65;;;9.80;79.10;;;;;;4974985;28;20022;-37
2024/03/17 06:44:50;;;;;;;8.95;8.02;;;9.80;79.10;;;;;;4970244;28;20434;-34
2024/03/17 06:47:16;;;;;;;9.32;7.53;;;9.80;79.10;;;;;;4970795;28;20026;-38
2024/03/17 06:49:43;;;;;;;9.02;7.70;;;9.80;79.10;;;;;;4965620;28;20511;-34
2024/03/17 06:52:09;;;;;;;9.10;8.15;;;9.80;79.10;;;;;;4991599;28;20188;-34
2024/03/17 06:54:35;;;;;;;8.95;7.65;;;9.90;79.20;;;;;;4963953;28;20499;-33
2024/03/17 06:57:01;;;;;;;9.30;8.15;;;9.90;79.20;;;;;;4978473;28;20031;-32
2024/03/17 06:59:27;;;;;;;9.15;7.75;;;9.90;79.20;;;;;;4981553;28;20024;-36
2024/03/17 07:01:52;;;;;;;9.02;7.80;;;9.80;79.20;;;;;;4975385;28;20034;-34
2024/03/17 07:04:18;;;;;;;10.07;8.13;;;9.90;79.20;;;;;;4970244;28;20023;-33
2024/03/17 07:06:44;;;;;;;9.25;8.18;;;9.90;79.20;;;;;;4974327;28;20041;-34
2024/03/17 07:09:10;;;;;;;9.07;8.07;;;9.90;79.20;;;;;;4981650;28;20081;-34
2024/03/17 07:11:36;;;;;;;9.68;8.18;;;9.90;79.20;;;;;;4979269;28;20031;-36
2024/03/17 07:14:02;;;;;;;9.77;8.50;;;9.90;79.30;;;;;;4980499;28;20046;-33
2024/03/17 07:16:28;;;;;;;10.10;8.18;;;9.90;79.30;;;;;;4962152;28;20031;-34
2024/03/17 07:18:56;;;;;;;9.13;8.15;;;9.90;79.30;;;;;;4975499;28;20479;-34
2024/03/17 07:21:21;;;;;;;10.27;8.80;;;9.90;79.20;;;;;;4971731;28;20082;-33
2024/03/17 07:23:48;;;;;;;9.38;8.38;;;9.90;79.20;;;;;;4965491;28;20016;-34
2024/03/17 07:26:14;;;;;;;9.75;8.32;;;10.00;79.30;;;;;;4954218;28;20082;-33
2024/03/17 07:28:40;;;;;;;10.13;8.48;;;10.00;79.30;;;;;;4982169;28;20034;-34
2024/03/17 07:31:09;;;;;;;9.50;8.02;;;10.00;79.30;;;;;;4963176;28;20054;-33
2024/03/17 07:33:34;;;;;;;9.13;7.78;;;10.00;79.40;;;;;;4992096;28;20064;-32
2024/03/17 07:36:02;;;;;;;8.85;7.95;;;10.10;79.40;;;;;;4979721;28;20098;-36
2024/03/17 07:38:28;;;;;;;9.82;7.63;;;10.00;79.30;;;;;;4980569;28;20019;-34
2024/03/17 07:41:04;;;;;;;10.38;7.95;;;10.10;79.30;;;;;;4960048;28;20018;-35
2024/03/17 07:43:35;;;;;;;9.73;8.30;;;10.10;79.30;;;;;;4964853;28;20034;-34
2024/03/17 07:46:09;;;;;;;9.75;8.25;;;10.10;79.40;;;;;;4980818;28;20074;-31
2024/03/17 07:48:37;;;;;;;8.77;7.82;;;10.10;79.40;;;;;;4983242;28;20065;-38
2024/03/17 07:51:08;;;;;;;9.07;8.02;;;10.10;79.40;;;;;;4971994;28;20028;-34
2024/03/17 07:53:35;;;;;;;10.20;8.20;;;10.20;79.40;;;;;;4974998;28;20395;-35
2024/03/17 07:56:11;;;;;;;8.95;7.53;;;10.10;79.30;;;;;;4981191;28;20022;-35
2024/03/17 07:58:39;;;;;;;8.82;7.72;;;10.20;79.40;;;;;;4973711;28;20023;-34
2024/03/17 08:01:12;;;;;;;9.88;7.70;;;10.20;79.40;;;;;;4965569;28;20115;-35
2024/03/17 08:03:45;;;;;;;8.90;7.43;;;10.20;79.40;;;;;;4967155;28;20026;-34
2024/03/17 08:06:11;;;;;;;8.50;7.60;;;10.20;79.40;;;;;;4961727;28;20031;-34
2024/03/17 08:08:37;;;;;;;8.65;7.53;;;10.20;79.40;;;;;;4980456;28;20058;-34
2024/03/17 08:11:03;;;;;;;8.68;7.35;;;10.30;79.40;;;;;;4974775;28;20063;-38
2024/03/17 08:13:34;;;;;;;9.80;7.88;;;10.30;79.50;;;;;;4963126;28;20052;-32
2024/03/17 08:16:10;;;;;;;9.25;7.75;;;10.30;79.40;;;;;;4979708;28;20022;-35
2024/03/17 08:18:37;;;;;;;8.23;7.00;;;10.40;79.40;;;;;;4969024;28;20031;-33
2024/03/17 08:21:04;;;;;;;8.48;7.13;;;10.40;79.40;;;;;;4975553;28;20031;-34
2024/03/17 08:23:30;;;;;;;7.93;6.68;;;10.40;79.40;;;;;;4970006;28;20031;-35
2024/03/17 08:25:58;;;;;;;8.88;6.93;;;10.40;79.40;;;;;;4960921;28;20037;-33
2024/03/17 08:28:26;;;;;;;8.95;7.10;;;10.40;79.40;;;;;;4971101;28;20029;-35
2024/03/17 08:30:56;;;;;;;8.02;7.05;;;10.50;79.40;;;;;;4978135;28;20035;-35
2024/03/17 08:33:23;;;;;;;8.60;6.55;;;10.50;79.40;;;;;;4975360;28;20035;-34
2024/03/17 08:36:03;;;;;;;8.77;7.30;;;10.50;79.40;;;;;;4968554;28;20027;-33
2024/03/17 08:38:30;;;;;;;9.30;7.10;;;10.60;79.40;;;;;;4981094;28;20515;-34
2024/03/17 08:40:57;;;;;;;8.80;6.97;;;10.60;79.30;;;;;;4968105;28;20117;-37
2024/03/17 08:43:23;;;;;;;8.55;6.85;;;10.60;79.20;;;;;;4968737;28;20062;-35
2024/03/17 08:46:02;;;;;;;8.82;7.32;;;10.70;79.90;;;;;;4975296;28;20025;-36
2024/03/17 08:48:30;;;;;;;9.07;6.88;;;10.70;79.20;;;;;;4968338;28;20168;-36
2024/03/17 08:50:57;;;;;;;8.32;6.68;;;10.70;79.20;;;;;;4969304;28;20026;-36
2024/03/17 08:53:23;;;;;;;8.50;6.38;;;10.80;79.30;;;;;;4977044;28;20855;-32
2024/03/17 08:55:49;;;;;;;7.97;6.47;;;10.80;79.20;;;;;;4980923;28;20459;-35
2024/03/17 08:58:15;;;;;;;7.85;6.68;;;10.80;79.20;;;;;;4977880;28;20026;-34
2024/03/17 09:00:41;;;;;;;8.32;6.90;;;10.90;79.20;;;;;;4962701;28;20041;-34
2024/03/17 09:03:11;;;;;;;8.45;6.85;;;10.90;79.20;;;;;;4973903;28;20201;-33
2024/03/17 09:05:42;;;;;;;8.00;6.70;;;10.90;79.20;;;;;;4959138;28;20023;-37
2024/03/17 09:08:10;;;;;;;7.20;6.05;;;11.00;79.20;;;;;;4975412;28;20471;-37
2024/03/17 09:10:43;;;;;;;7.50;6.60;;;11.00;79.10;;;;;;4978236;28;20392;-34
2024/03/17 09:13:17;;;;;;;7.38;6.22;;;11.10;79.10;;;;;;4969962;28;20051;-32
2024/03/17 09:15:56;;;;;;;8.50;6.27;;;11.10;79.10;;;;;;4965609;28;20054;-34
2024/03/17 09:18:23;;;;;;;6.78;6.07;;;11.10;79.00;;;;;;4977388;28;20394;-36
2024/03/17 09:21:07;;;;;;;6.95;5.78;;;11.10;79.00;;;;;;4976754;28;20031;-33
2024/03/17 09:23:34;;;;;;;7.07;5.88;;;11.20;79.00;;;;;;4976182;28;20030;-32
2024/03/17 09:26:05;;;;;;;6.53;5.78;;;11.20;79.00;;;;;;4975859;28;20027;-33
2024/03/17 09:28:32;;;;;;;6.85;5.85;;;11.20;78.90;;;;;;4984037;28;20090;-32
2024/03/17 09:30:58;;;;;;;6.68;5.88;;;11.30;78.90;;;;;;4947098;28;20480;-34
2024/03/17 09:33:26;;;;;;;7.18;5.85;;;11.30;78.90;;;;;;4969414;28;20038;-36
2024/03/17 09:36:00;;;;;;;6.93;5.90;;;11.40;78.90;;;;;;4977531;28;20046;-33
2024/03/17 09:38:27;;;;;;;6.75;5.40;;;11.40;78.80;;;;;;4980062;28;20474;-38
2024/03/17 09:40:53;;;;;;;6.55;5.45;;;11.40;78.70;;;;;;4990286;28;20034;-37
2024/03/17 09:43:20;;;;;;;7.32;5.75;;;11.50;78.70;;;;;;4967221;28;20032;-33
2024/03/17 09:45:46;;;;;;;6.80;5.70;;;11.50;78.70;;;;;;4958579;28;20143;-36
2024/03/17 09:48:19;;;;;;;6.68;5.95;;;11.60;78.70;;;;;;4977159;28;20038;-37
2024/03/17 09:50:56;;;;;;;6.47;5.40;;;11.60;78.70;;;;;;4948943;28;20027;-34
2024/03/17 09:53:30;;;;;;;7.07;5.53;;;11.60;78.60;;;;;;4964730;28;20080;-32
2024/03/17 09:56:05;;;;;;;7.75;6.07;;;11.70;78.60;;;;;;4971359;28;20030;-33
2024/03/17 09:58:30;;;;;;;7.20;5.78;;;11.70;78.60;;;;;;4986849;28;20018;-37
2024/03/17 10:00:56;;;;;;;6.90;5.32;;;11.70;78.50;;;;;;4981735;28;20508;-36
2024/03/17 10:03:49;;;;;;;6.80;5.38;;;11.80;78.50;;;;;;4968402;28;20033;-35
2024/03/17 10:06:16;;;;;;;8.25;5.55;;;11.90;78.50;;;;;;4963634;28;20035;-37
2024/03/17 10:08:49;;;;;;;6.45;5.15;;;11.90;78.40;;;;;;4976973;28;20031;-32
2024/03/17 10:11:17;;;;;;;7.85;5.40;;;11.90;78.40;;;;;;4962191;28;20028;-35
2024/03/17 10:13:44;;;;;;;6.72;5.18;;;11.90;78.40;;;;;;4980078;28;20042;-36
2024/03/17 10:16:24;;;;;;;6.07;5.47;;;12.00;78.40;;;;;;4970642;28;20054;-35
2024/03/17 10:19:05;;;;;;;7.22;5.63;;;12.00;78.30;;;;;;4978161;28;20187;-38
2024/03/17 10:21:30;;;;;;;7.65;5.45;;;12.10;78.30;;;;;;4978137;28;20098;-32
2024/03/17 10:24:09;;;;;;;6.18;4.80;;;12.10;78.30;;;;;;4974251;28;20066;-33
2024/03/17 10:26:52;;;;;;;6.65;5.13;;;12.20;78.40;;;;;;4965439;28;20027;-37
2024/03/17 10:29:22;;;;;;;6.78;5.75;;;12.20;78.30;;;;;;4980292;28;20027;-38
2024/03/17 10:31:48;;;;;;;6.82;5.35;;;12.20;78.90;;;;;;4980315;28;20182;-35
2024/03/17 10:34:18;;;;;;;6.97;5.63;;;12.30;78.20;;;;;;4971304;28;20470;-36
2024/03/17 10:36:48;;;;;;;7.00;5.20;;;12.30;78.20;;;;;;4970726;28;20030;-36
2024/03/17 10:39:32;;;;;;;7.20;5.40;;;12.40;78.30;;;;;;4976303;28;20041;-36
2024/03/17 10:42:06;;;;;;;6.72;5.40;;;12.40;78.20;;;;;;4977433;28;20585;-36
2024/03/17 10:44:36;;;;;;;6.32;5.00;;;12.50;78.20;;;;;;4980862;28;20109;-32
2024/03/17 10:47:03;;;;;;;6.55;5.70;;;12.50;78.10;;;;;;4968903;28;20054;-35
2024/03/17 10:49:31;;;;;;;6.82;5.43;;;12.50;78.10;;;;;;4970573;28;20047;-34
2024/03/17 10:52:14;;;;;;;6.88;5.10;;;12.60;78.10;;;;;;4978377;28;20050;-33
2024/03/17 10:54:47;;;;;;;7.68;5.97;;;12.60;78.00;;;;;;4979974;28;20074;-33
2024/03/17 10:57:35;;;;;;;6.63;5.40;;;12.70;78.00;;;;;;4967087;28;20035;-35
2024/03/17 11:00:04;;;;;;;7.28;5.65;;;12.80;77.90;;;;;;4975551;28;20063;-35
2024/03/17 11:02:38;;;;;;;7.25;6.10;;;12.80;77.80;;;;;;4962355;28;20024;-36
2024/03/17 11:05:18;;;;;;;6.63;5.82;;;12.80;77.80;;;;;;4975096;28;20566;-32
2024/03/17 11:07:46;;;;;;;8.07;5.72;;;12.90;77.80;;;;;;4969966;28;20061;-33
2024/03/17 11:10:53;;;;;;;7.32;5.80;;;13.00;77.80;;;;;;4980297;28;20049;-33
2024/03/17 11:13:26;;;;;;;7.10;5.75;;;13.00;77.80;;;;;;4938451;29;20497;-32
2024/03/17 11:15:53;;;;;;;6.88;5.57;;;13.10;77.70;;;;;;4938230;29;20031;-36
2024/03/17 11:18:19;;;;;;;7.88;5.95;;;13.10;77.60;;;;;;4964300;28;20050;-36
2024/03/17 11:21:20;;;;;;;7.22;6.10;;;13.10;77.60;;;;;;4961233;28;20539;-35
2024/03/17 11:24:00;;;;;;;6.05;5.28;;;13.20;77.60;;;;;;4953416;28;20027;-34
2024/03/17 11:26:28;;;;;;;7.57;5.80;;;13.30;77.50;;;;;;4961904;28;20046;-33
2024/03/17 11:28:55;;;;;;;7.13;6.00;;;13.30;77.50;;;;;;4982178;28;20360;-34
2024/03/17 11:31:54;;;;;;;6.35;5.68;;;13.30;77.50;;;;;;4973387;28;20037;-34
2024/03/17 11:34:39;;;;;;;7.10;5.93;;;13.40;77.50;;;;;;4971728;28;20039;-36
2024/03/17 11:37:08;;;;;;;8.02;5.70;;;13.50;77.50;;;;;;4972187;28;20035;-38
2024/03/17 11:39:57;;;;;;;6.75;5.35;;;13.50;77.40;;;;;;4967347;28;20023;-31
2024/03/17 11:42:27;;;;;;;7.57;6.05;;;13.50;77.40;;;;;;4970933;28;20030;-34
2024/03/17 11:45:00;;;;;;;7.05;6.10;;;13.60;77.40;;;;;;4961658;28;20491;-36
2024/03/17 11:47:44;;;;;;;7.65;6.20;;;13.60;77.30;;;;;;4974737;28;20035;-34
2024/03/17 11:50:12;;;;;;;6.90;5.80;;;13.70;77.30;;;;;;4984790;28;20460;-34
2024/03/17 11:52:42;;;;;;;7.68;5.95;;;13.70;77.30;;;;;;4972781;28;20086;-33
2024/03/17 11:55:18;;;;;;;7.78;6.47;;;13.70;77.20;;;;;;4978685;28;20019;-34
2024/03/17 11:57:45;;;;;;;7.85;6.30;;;13.80;77.10;;;;;;4978272;28;20037;-33
2024/03/17 12:00:24;;;;;;;6.93;5.97;;;13.80;77.10;;;;;;4965187;28;20815;-34
2024/03/17 12:02:50;;;;;;;7.28;5.90;;;13.90;77.10;;;;;;4979152;28;20033;-33
2024/03/17 12:05:16;;;;;;;7.90;6.25;;;13.90;77.10;;;;;;4978745;28;20023;-37
2024/03/17 12:07:42;;;;;;;7.03;5.68;;;13.90;77.00;;;;;;4975812;28;20122;-35
2024/03/17 12:10:10;;;;;;;6.65;5.82;;;14.00;77.00;;;;;;4972894;28;20038;-35
2024/03/17 12:12:36;;;;;;;6.97;5.85;;;14.00;76.90;;;;;;4980869;28;20039;-32
2024/03/17 12:15:16;;;;;;;6.93;5.88;;;14.00;77.00;;;;;;4974864;28;20034;-33
2024/03/17 12:17:42;;;;;;;6.68;5.57;;;14.10;76.90;;;;;;4976860;28;20433;-34
2024/03/17 12:20:18;;;;;;;7.07;6.00;;;14.10;76.90;;;;;;4974301;28;20041;-32
2024/03/17 12:22:43;;;;;;;6.85;5.97;;;14.10;76.80;;;;;;4975139;28;20119;-38
2024/03/17 12:25:20;;;;;;;7.05;6.10;;;14.10;76.80;;;;;;4975198;28;20043;-35
2024/03/17 12:27:48;;;;;;;6.95;5.82;;;14.20;76.80;;;;;;4978022;28;20062;-35
2024/03/17 12:30:15;;;;;;;6.53;5.57;;;14.20;76.70;;;;;;4982964;28;20026;-35
2024/03/17 12:32:41;;;;;;;8.00;6.55;;;14.30;76.80;;;;;;4972023;28;20042;-31
2024/03/17 12:35:14;;;;;;;7.00;5.97;;;14.30;76.70;;;;;;4976783;28;20074;-34
2024/03/17 12:37:40;;;;;;;7.40;6.07;;;14.40;76.70;;;;;;4971035;28;20139;-34
2024/03/17 12:40:19;;;;;;;8.00;6.40;;;14.40;76.70;;;;;;4978088;28;20397;-32
2024/03/17 12:42:49;;;;;;;6.75;5.82;;;14.40;76.60;;;;;;4969097;28;20043;-35
2024/03/17 12:45:19;;;;;;;7.50;6.45;;;14.40;76.60;;;;;;4969996;28;20050;-33
2024/03/17 12:47:51;;;;;;;7.40;5.95;;;14.50;76.60;;;;;;4969895;28;20027;-35
2024/03/17 12:50:17;;;;;;;8.20;6.25;;;14.50;76.60;;;;;;4981832;28;20043;-33
2024/03/17 12:52:55;;;;;;;7.10;6.05;;;14.50;76.60;;;;;;4974467;28;20066;-33
2024/03/17 13:01:04;;;;;;;7.43;5.88;;;14.60;76.50;;;;;;4972780;28;20023;-38
2024/03/17 13:03:34;;;;;;;7.60;6.40;;;14.60;76.50;;;;;;4984311;28;20090;-32